EGMC

London Southend Airport

Airport
ICAO code
EGMC
IATA Code
SEN
Summary
ICAO Region
EUR
ICAO Territory
Location

Rochford, Essex, England

Serving
Southend
Elevation
49 ft
Coordinates
51° 34' 21" N , 0° 41' 53" E
KCC
Metar
Observation
EGMC 291750Z 35003KT 7000 BKN018 07/06 Q1022
Station
Southend-On-Sea
Date/Time
2022-11-29 17:50:00
Wind direction
350°
Wind speed
03 kts
Lowest cloud amount
broken clouds
Temperature
7°C
Dew point
6°C
Humidity
93%
QNH
1022 hPa
Weather condition
n/a

Description

London Southend Airport or Southend Airport is a regional airport in the District of Rochford within Essex, England.

Climatology

Temperate Marine climate/Oceanic climate (Köppen climate classification Cfb). Moderately cool summer and comparatively warm winter with a temperature range of only 14°C. Prevailing south-westerly winds from the Atlantic Ocean.

Runways

Designator Length Width Surface Rops
6/24 1531 37 ASP Yes/Yes

Airport map

Aerial View

SKYbrary Partners:

Safety knowledge contributed by: